sensor_id;sensor_type;location;lat;lon;timestamp;temperature;humidity
64396;DHT22;50717;53.360;6.290;2022-12-01T00:01:41;6.50;99.90
64396;DHT22;50717;53.360;6.290;2022-12-01T00:04:06;7.50;99.90
64396;DHT22;50717;53.360;6.290;2022-12-01T00:06:32;7.10;99.90
64396;DHT22;50717;53.360;6.290;2022-12-01T00:08:58;6.60;99.90
64396;DHT22;50717;53.360;6.290;2022-12-01T00:11:42;7.30;99.90
64396;DHT22;50717;53.360;6.290;2022-12-01T00:14:09;6.40;99.90
64396;DHT22;50717;53.360;6.290;2022-12-01T00:16:34;6.30;99.90
64396;DHT22;50717;53.360;6.290;2022-12-01T00:19:00;6.90;99.90
64396;DHT22;50717;53.360;6.290;2022-12-01T00:21:27;7.90;99.90
64396;DHT22;50717;53.360;6.290;2022-12-01T00:23:55;6.50;99.90
64396;DHT22;50717;53.360;6.290;2022-12-01T00:26:21;6.60;99.90
64396;DHT22;50717;53.360;6.290;2022-12-01T00:28:49;6.80;99.90
64396;DHT22;50717;53.360;6.290;2022-12-01T00:31:14;6.30;99.90
64396;DHT22;50717;53.360;6.290;2022-12-01T00:33:40;7.80;99.90
64396;DHT22;50717;53.360;6.290;2022-12-01T00:36:06;7.20;99.90
64396;DHT22;50717;53.360;6.290;2022-12-01T00:38:33;6.30;99.90
64396;DHT22;50717;53.360;6.290;2022-12-01T00:40:58;6.60;99.90
64396;DHT22;50717;53.360;6.290;2022-12-01T00:43:24;6.80;99.90
64396;DHT22;50717;53.360;6.290;2022-12-01T00:45:50;7.10;99.90
64396;DHT22;50717;53.360;6.290;2022-12-01T00:48:16;6.10;99.90
64396;DHT22;50717;53.360;6.290;2022-12-01T00:50:42;6.60;99.90
64396;DHT22;50717;53.360;6.290;2022-12-01T00:53:08;6.50;99.90
64396;DHT22;50717;53.360;6.290;2022-12-01T00:55:34;6.20;99.90
64396;DHT22;50717;53.360;6.290;2022-12-01T00:57:59;6.50;99.90
64396;DHT22;50717;53.360;6.290;2022-12-01T01:00:25;7.20;99.90
64396;DHT22;50717;53.360;6.290;2022-12-01T01:02:51;7.10;99.90
64396;DHT22;50717;53.360;6.290;2022-12-01T01:05:16;5.90;99.90
64396;DHT22;50717;53.360;6.290;2022-12-01T01:07:42;6.60;99.90
64396;DHT22;50717;53.360;6.290;2022-12-01T01:10:08;7.20;99.90
64396;DHT22;50717;53.360;6.290;2022-12-01T01:12:34;6.30;99.90
64396;DHT22;50717;53.360;6.290;2022-12-01T01:15:00;7.20;99.90
64396;DHT22;50717;53.360;6.290;2022-12-01T01:17:25;5.90;99.90
64396;DHT22;50717;53.360;6.290;2022-12-01T01:19:52;6.30;99.90
64396;DHT22;50717;53.360;6.290;2022-12-01T01:22:18;6.40;99.90
64396;DHT22;50717;53.360;6.290;2022-12-01T01:24:43;6.90;99.90
64396;DHT22;50717;53.360;6.290;2022-12-01T01:27:09;7.40;99.90
64396;DHT22;50717;53.360;6.290;2022-12-01T01:29:35;5.90;99.90
64396;DHT22;50717;53.360;6.290;2022-12-01T01:32:01;6.10;99.90
64396;DHT22;50717;53.360;6.290;2022-12-01T01:34:27;6.20;99.90
64396;DHT22;50717;53.360;6.290;2022-12-01T01:36:53;6.30;99.90
64396;DHT22;50717;53.360;6.290;2022-12-01T01:39:18;6.10;99.90
64396;DHT22;50717;53.360;6.290;2022-12-01T01:41:44;6.40;99.90
64396;DHT22;50717;53.360;6.290;2022-12-01T01:47:15;6.60;99.90
64396;DHT22;50717;53.360;6.290;2022-12-01T01:49:42;6.50;99.90
64396;DHT22;50717;53.360;6.290;2022-12-01T01:52:08;6.60;99.90
64396;DHT22;50717;53.360;6.290;2022-12-01T01:54:39;6.80;99.90
64396;DHT22;50717;53.360;6.290;2022-12-01T01:57:08;6.30;99.90
64396;DHT22;50717;53.360;6.290;2022-12-01T01:59:39;7.30;99.90
64396;DHT22;50717;53.360;6.290;2022-12-01T02:02:09;6.10;99.90
64396;DHT22;50717;53.360;6.290;2022-12-01T02:04:40;6.90;99.90
64396;DHT22;50717;53.360;6.290;2022-12-01T02:07:07;6.40;99.90
64396;DHT22;50717;53.360;6.290;2022-12-01T02:09:33;7.00;99.90
64396;DHT22;50717;53.360;6.290;2022-12-01T02:26:14;6.30;99.90
64396;DHT22;50717;53.360;6.290;2022-12-01T02:29:13;6.30;99.90
64396;DHT22;50717;53.360;6.290;2022-12-01T02:34:50;6.70;99.90
64396;DHT22;50717;53.360;6.290;2022-12-01T02:43:00;6.40;99.90
64396;DHT22;50717;53.360;6.290;2022-12-01T02:48:28;6.30;99.90
64396;DHT22;50717;53.360;6.290;2022-12-01T02:50:58;6.70;99.90
64396;DHT22;50717;53.360;6.290;2022-12-01T02:53:25;6.90;99.90
64396;DHT22;50717;53.360;6.290;2022-12-01T02:55:53;6.40;99.90
64396;DHT22;50717;53.360;6.290;2022-12-01T02:58:20;6.20;99.90
64396;DHT22;50717;53.360;6.290;2022-12-01T03:03:55;6.40;99.90
64396;DHT22;50717;53.360;6.290;2022-12-01T03:18:10;6.60;99.90
64396;DHT22;50717;53.360;6.290;2022-12-01T03:20:58;6.40;99.90
64396;DHT22;50717;53.360;6.290;2022-12-01T03:23:30;8.00;99.90
64396;DHT22;50717;53.360;6.290;2022-12-01T03:25:58;6.40;99.90
64396;DHT22;50717;53.360;6.290;2022-12-01T03:28:29;6.30;99.90
64396;DHT22;50717;53.360;6.290;2022-12-01T03:31:01;6.60;99.90
64396;DHT22;50717;53.360;6.290;2022-12-01T03:33:33;6.50;99.90
64396;DHT22;50717;53.360;6.290;2022-12-01T03:38:33;6.40;99.90
64396;DHT22;50717;53.360;6.290;2022-12-01T03:41:05;6.40;99.90
64396;DHT22;50717;53.360;6.290;2022-12-01T03:43:34;6.30;99.90
64396;DHT22;50717;53.360;6.290;2022-12-01T03:46:21;6.30;99.90
64396;DHT22;50717;53.360;6.290;2022-12-01T03:48:49;7.70;99.90
64396;DHT22;50717;53.360;6.290;2022-12-01T03:51:33;6.50;99.90
64396;DHT22;50717;53.360;6.290;2022-12-01T03:54:06;6.40;99.90
64396;DHT22;50717;53.360;6.290;2022-12-01T03:56:43;6.50;99.90
64396;DHT22;50717;53.360;6.290;2022-12-01T03:59:11;6.50;99.90
64396;DHT22;50717;53.360;6.290;2022-12-01T04:01:38;6.60;99.90
64396;DHT22;50717;53.360;6.290;2022-12-01T04:04:09;7.70;99.90
64396;DHT22;50717;53.360;6.290;2022-12-01T04:06:36;6.50;99.90
64396;DHT22;50717;53.360;6.290;2022-12-01T04:09:02;8.00;99.90
64396;DHT22;50717;53.360;6.290;2022-12-01T04:11:29;6.80;99.90
64396;DHT22;50717;53.360;6.290;2022-12-01T04:14:13;7.50;99.90
64396;DHT22;50717;53.360;6.290;2022-12-01T04:16:39;6.40;99.90
64396;DHT22;50717;53.360;6.290;2022-12-01T04:19:05;6.30;99.90
64396;DHT22;50717;53.360;6.290;2022-12-01T04:21:30;6.40;99.90
64396;DHT22;50717;53.360;6.290;2022-12-01T04:23:56;7.20;99.90
64396;DHT22;50717;53.360;6.290;2022-12-01T04:26:26;6.90;99.90
64396;DHT22;50717;53.360;6.290;2022-12-01T04:28:51;6.70;99.90
64396;DHT22;50717;53.360;6.290;2022-12-01T04:31:17;6.80;99.90
64396;DHT22;50717;53.360;6.290;2022-12-01T04:33:43;6.50;99.90
64396;DHT22;50717;53.360;6.290;2022-12-01T04:36:09;7.40;99.90
64396;DHT22;50717;53.360;6.290;2022-12-01T04:38:34;6.30;99.90
64396;DHT22;50717;53.360;6.290;2022-12-01T04:41:10;6.60;99.90
64396;DHT22;50717;53.360;6.290;2022-12-01T04:43:36;6.40;99.90
64396;DHT22;50717;53.360;6.290;2022-12-01T04:46:03;6.30;99.90
64396;DHT22;50717;53.360;6.290;2022-12-01T04:48:28;6.60;99.90
64396;DHT22;50717;53.360;6.290;2022-12-01T04:50:54;6.50;99.90
64396;DHT22;50717;53.360;6.290;2022-12-01T04:53:20;6.90;99.90
64396;DHT22;50717;53.360;6.290;2022-12-01T04:55:45;6.50;99.90
64396;DHT22;50717;53.360;6.290;2022-12-01T04:58:11;6.70;99.90
64396;DHT22;50717;53.360;6.290;2022-12-01T05:00:37;6.40;99.90
64396;DHT22;50717;53.360;6.290;2022-12-01T05:03:03;6.30;99.90
64396;DHT22;50717;53.360;6.290;2022-12-01T05:05:29;6.60;99.90
64396;DHT22;50717;53.360;6.290;2022-12-01T05:07:54;6.60;99.90
64396;DHT22;50717;53.360;6.290;2022-12-01T05:10:21;6.40;99.90
64396;DHT22;50717;53.360;6.290;2022-12-01T05:12:46;7.70;99.90
64396;DHT22;50717;53.360;6.290;2022-12-01T05:15:12;6.50;99.90
64396;DHT22;50717;53.360;6.290;2022-12-01T05:17:38;6.40;99.90
64396;DHT22;50717;53.360;6.290;2022-12-01T05:20:05;7.30;99.90
64396;DHT22;50717;53.360;6.290;2022-12-01T05:22:49;6.50;99.90
64396;DHT22;50717;53.360;6.290;2022-12-01T05:25:17;6.70;99.90
64396;DHT22;50717;53.360;6.290;2022-12-01T05:27:43;6.60;99.90
64396;DHT22;50717;53.360;6.290;2022-12-01T05:30:09;6.50;99.90
64396;DHT22;50717;53.360;6.290;2022-12-01T05:32:35;6.40;99.90
64396;DHT22;50717;53.360;6.290;2022-12-01T05:35:01;6.40;99.90
64396;DHT22;50717;53.360;6.290;2022-12-01T05:37:26;6.30;99.90
64396;DHT22;50717;53.360;6.290;2022-12-01T05:39:57;6.50;99.90
64396;DHT22;50717;53.360;6.290;2022-12-01T05:42:23;6.70;99.90
64396;DHT22;50717;53.360;6.290;2022-12-01T05:44:49;6.50;99.90
64396;DHT22;50717;53.360;6.290;2022-12-01T05:47:14;6.10;99.90
64396;DHT22;50717;53.360;6.290;2022-12-01T05:49:40;6.30;99.90
64396;DHT22;50717;53.360;6.290;2022-12-01T05:52:06;5.60;99.90
64396;DHT22;50717;53.360;6.290;2022-12-01T05:54:31;5.60;99.90
64396;DHT22;50717;53.360;6.290;2022-12-01T05:56:57;5.50;99.90
64396;DHT22;50717;53.360;6.290;2022-12-01T05:59:23;5.60;99.90
64396;DHT22;50717;53.360;6.290;2022-12-01T06:01:48;5.50;99.90
64396;DHT22;50717;53.360;6.290;2022-12-01T06:04:14;5.30;99.90
64396;DHT22;50717;53.360;6.290;2022-12-01T06:06:40;5.60;99.90
64396;DHT22;50717;53.360;6.290;2022-12-01T06:09:06;5.00;99.90
64396;DHT22;50717;53.360;6.290;2022-12-01T06:11:32;4.90;99.90
64396;DHT22;50717;53.360;6.290;2022-12-01T06:13:58;5.10;99.90
64396;DHT22;50717;53.360;6.290;2022-12-01T06:16:24;4.90;99.90
64396;DHT22;50717;53.360;6.290;2022-12-01T06:18:50;4.90;99.90
64396;DHT22;50717;53.360;6.290;2022-12-01T06:21:15;4.70;99.90
64396;DHT22;50717;53.360;6.290;2022-12-01T06:23:41;4.70;99.90
64396;DHT22;50717;53.360;6.290;2022-12-01T06:26:07;4.50;99.90
64396;DHT22;50717;53.360;6.290;2022-12-01T06:28:32;4.30;99.90
64396;DHT22;50717;53.360;6.290;2022-12-01T06:30:58;4.40;99.90
64396;DHT22;50717;53.360;6.290;2022-12-01T06:33:24;4.50;99.90
64396;DHT22;50717;53.360;6.290;2022-12-01T06:35:57;4.40;99.90
64396;DHT22;50717;53.360;6.290;2022-12-01T06:38:23;4.30;99.90
64396;DHT22;50717;53.360;6.290;2022-12-01T06:40:48;4.40;99.90
64396;DHT22;50717;53.360;6.290;2022-12-01T06:43:14;4.50;99.90
64396;DHT22;50717;53.360;6.290;2022-12-01T06:45:40;4.80;99.90
64396;DHT22;50717;53.360;6.290;2022-12-01T06:48:05;4.60;99.90
64396;DHT22;50717;53.360;6.290;2022-12-01T06:50:31;4.90;99.90
64396;DHT22;50717;53.360;6.290;2022-12-01T06:52:57;4.80;99.90
64396;DHT22;50717;53.360;6.290;2022-12-01T06:55:22;5.00;99.90
64396;DHT22;50717;53.360;6.290;2022-12-01T06:57:49;5.00;99.90
64396;DHT22;50717;53.360;6.290;2022-12-01T07:00:16;5.00;99.90
64396;DHT22;50717;53.360;6.290;2022-12-01T07:02:41;4.80;99.90
64396;DHT22;50717;53.360;6.290;2022-12-01T07:05:07;4.80;99.90
64396;DHT22;50717;53.360;6.290;2022-12-01T07:07:37;4.90;99.90
64396;DHT22;50717;53.360;6.290;2022-12-01T07:10:03;4.90;99.90
64396;DHT22;50717;53.360;6.290;2022-12-01T07:12:29;5.00;99.90
64396;DHT22;50717;53.360;6.290;2022-12-01T07:14:56;4.80;99.90
64396;DHT22;50717;53.360;6.290;2022-12-01T07:17:22;4.90;99.90
64396;DHT22;50717;53.360;6.290;2022-12-01T07:19:48;4.80;99.90
64396;DHT22;50717;53.360;6.290;2022-12-01T07:22:14;4.60;99.90
64396;DHT22;50717;53.360;6.290;2022-12-01T07:24:40;4.60;99.90
64396;DHT22;50717;53.360;6.290;2022-12-01T07:27:06;4.70;99.90
64396;DHT22;50717;53.360;6.290;2022-12-01T07:29:31;4.50;99.90
64396;DHT22;50717;53.360;6.290;2022-12-01T07:31:57;4.60;99.90
64396;DHT22;50717;53.360;6.290;2022-12-01T07:34:23;4.70;99.90
64396;DHT22;50717;53.360;6.290;2022-12-01T07:36:49;4.60;99.90
64396;DHT22;50717;53.360;6.290;2022-12-01T07:39:14;4.10;99.90
64396;DHT22;50717;53.360;6.290;2022-12-01T07:41:40;4.30;99.90
64396;DHT22;50717;53.360;6.290;2022-12-01T07:44:06;4.10;99.90
64396;DHT22;50717;53.360;6.290;2022-12-01T07:46:32;4.20;99.90
64396;DHT22;50717;53.360;6.290;2022-12-01T07:48:57;4.10;99.90
64396;DHT22;50717;53.360;6.290;2022-12-01T07:51:24;3.90;99.90
64396;DHT22;50717;53.360;6.290;2022-12-01T07:53:52;4.10;99.90
64396;DHT22;50717;53.360;6.290;2022-12-01T07:56:18;4.10;99.90
64396;DHT22;50717;53.360;6.290;2022-12-01T07:58:44;4.30;99.90
64396;DHT22;50717;53.360;6.290;2022-12-01T08:03:38;4.00;99.90
64396;DHT22;50717;53.360;6.290;2022-12-01T08:06:04;4.10;99.90
64396;DHT22;50717;53.360;6.290;2022-12-01T08:08:31;4.40;99.90
64396;DHT22;50717;53.360;6.290;2022-12-01T08:11:02;4.30;99.90
64396;DHT22;50717;53.360;6.290;2022-12-01T08:18:22;4.90;99.90
64396;DHT22;50717;53.360;6.290;2022-12-01T08:20:48;4.90;99.90
64396;DHT22;50717;53.360;6.290;2022-12-01T08:23:14;4.70;99.90
64396;DHT22;50717;53.360;6.290;2022-12-01T08:25:40;5.00;99.90
64396;DHT22;50717;53.360;6.290;2022-12-01T08:28:06;5.00;99.90
64396;DHT22;50717;53.360;6.290;2022-12-01T08:30:31;4.90;99.90
64396;DHT22;50717;53.360;6.290;2022-12-01T08:32:57;5.20;99.90
64396;DHT22;50717;53.360;6.290;2022-12-01T08:35:23;4.80;99.90
64396;DHT22;50717;53.360;6.290;2022-12-01T08:37:52;4.90;99.90
64396;DHT22;50717;53.360;6.290;2022-12-01T08:40:19;5.00;99.90
64396;DHT22;50717;53.360;6.290;2022-12-01T08:42:45;5.30;99.90
64396;DHT22;50717;53.360;6.290;2022-12-01T08:45:11;5.20;99.90
64396;DHT22;50717;53.360;6.290;2022-12-01T08:47:36;5.10;99.90
64396;DHT22;50717;53.360;6.290;2022-12-01T08:50:02;5.10;99.90
64396;DHT22;50717;53.360;6.290;2022-12-01T08:52:33;5.20;99.90
64396;DHT22;50717;53.360;6.290;2022-12-01T08:54:59;5.00;99.90
64396;DHT22;50717;53.360;6.290;2022-12-01T08:57:24;5.00;99.90
64396;DHT22;50717;53.360;6.290;2022-12-01T08:59:50;5.40;99.90
64396;DHT22;50717;53.360;6.290;2022-12-01T09:02:16;5.30;99.90
64396;DHT22;50717;53.360;6.290;2022-12-01T09:04:47;5.40;99.90
64396;DHT22;50717;53.360;6.290;2022-12-01T09:07:14;5.50;99.90
64396;DHT22;50717;53.360;6.290;2022-12-01T09:09:41;5.40;99.90
64396;DHT22;50717;53.360;6.290;2022-12-01T09:12:08;5.40;99.90
64396;DHT22;50717;53.360;6.290;2022-12-01T09:14:38;5.60;99.90
64396;DHT22;50717;53.360;6.290;2022-12-01T09:17:04;5.50;99.90
64396;DHT22;50717;53.360;6.290;2022-12-01T09:19:30;5.90;99.90
64396;DHT22;50717;53.360;6.290;2022-12-01T09:21:56;5.40;99.90
64396;DHT22;50717;53.360;6.290;2022-12-01T09:24:22;6.00;99.90
64396;DHT22;50717;53.360;6.290;2022-12-01T09:26:48;5.80;99.90
64396;DHT22;50717;53.360;6.290;2022-12-01T09:29:14;7.30;99.90
64396;DHT22;50717;53.360;6.290;2022-12-01T09:31:41;5.80;99.90
64396;DHT22;50717;53.360;6.290;2022-12-01T09:34:11;6.10;99.90
64396;DHT22;50717;53.360;6.290;2022-12-01T09:36:37;6.60;99.90
64396;DHT22;50717;53.360;6.290;2022-12-01T09:39:05;6.70;99.90
64396;DHT22;50717;53.360;6.290;2022-12-01T09:41:41;6.50;99.90
64396;DHT22;50717;53.360;6.290;2022-12-01T09:47:02;6.70;99.90
64396;DHT22;50717;53.360;6.290;2022-12-01T09:49:48;6.40;99.90
64396;DHT22;50717;53.360;6.290;2022-12-01T09:52:17;6.60;99.90
64396;DHT22;50717;53.360;6.290;2022-12-01T09:54:45;6.90;99.90
64396;DHT22;50717;53.360;6.290;2022-12-01T09:57:17;7.70;99.90
64396;DHT22;50717;53.360;6.290;2022-12-01T09:59:47;8.00;99.90
64396;DHT22;50717;53.360;6.290;2022-12-01T10:02:30;7.10;99.90
64396;DHT22;50717;53.360;6.290;2022-12-01T10:04:59;7.30;99.90
64396;DHT22;50717;53.360;6.290;2022-12-01T10:07:30;8.10;99.90
64396;DHT22;50717;53.360;6.290;2022-12-01T10:10:05;7.90;99.90
64396;DHT22;50717;53.360;6.290;2022-12-01T10:12:33;7.50;99.90
64396;DHT22;50717;53.360;6.290;2022-12-01T10:15:14;7.60;99.90
64396;DHT22;50717;53.360;6.290;2022-12-01T10:20:37;7.50;99.90
64396;DHT22;50717;53.360;6.290;2022-12-01T10:26:12;7.60;99.90
64396;DHT22;50717;53.360;6.290;2022-12-01T10:29:17;7.70;99.90
64396;DHT22;50717;53.360;6.290;2022-12-01T10:34:38;7.70;99.90
64396;DHT22;50717;53.360;6.290;2022-12-01T10:37:18;8.20;99.90
64396;DHT22;50717;53.360;6.290;2022-12-01T10:39:47;8.10;99.90
64396;DHT22;50717;53.360;6.290;2022-12-01T10:42:38;7.90;99.90
64396;DHT22;50717;53.360;6.290;2022-12-01T10:45:13;7.70;99.90
64396;DHT22;50717;53.360;6.290;2022-12-01T10:50:54;7.80;99.90
64396;DHT22;50717;53.360;6.290;2022-12-01T10:56:19;7.80;99.90
64396;DHT22;50717;53.360;6.290;2022-12-01T11:01:24;7.70;99.90
64396;DHT22;50717;53.360;6.290;2022-12-01T11:03:54;7.50;99.90
64396;DHT22;50717;53.360;6.290;2022-12-01T11:06:23;7.70;99.90
64396;DHT22;50717;53.360;6.290;2022-12-01T11:08:52;7.80;99.90
64396;DHT22;50717;53.360;6.290;2022-12-01T11:11:31;7.70;99.90
64396;DHT22;50717;53.360;6.290;2022-12-01T11:14:01;8.50;99.90
64396;DHT22;50717;53.360;6.290;2022-12-01T11:16:46;8.20;99.90
64396;DHT22;50717;53.360;6.290;2022-12-01T11:19:32;7.40;99.90
64396;DHT22;50717;53.360;6.290;2022-12-01T11:22:25;7.30;99.90
64396;DHT22;50717;53.360;6.290;2022-12-01T11:27:25;7.40;99.90
64396;DHT22;50717;53.360;6.290;2022-12-01T11:29:54;7.40;99.90
64396;DHT22;50717;53.360;6.290;2022-12-01T11:32:29;7.10;99.90
64396;DHT22;50717;53.360;6.290;2022-12-01T11:34:57;7.00;99.90
64396;DHT22;50717;53.360;6.290;2022-12-01T11:37:28;7.20;99.90
64396;DHT22;50717;53.360;6.290;2022-12-01T11:39:54;7.10;99.90
64396;DHT22;50717;53.360;6.290;2022-12-01T11:42:29;6.90;99.90
64396;DHT22;50717;53.360;6.290;2022-12-01T11:45:04;7.90;99.90
64396;DHT22;50717;53.360;6.290;2022-12-01T11:47:30;8.30;99.90
64396;DHT22;50717;53.360;6.290;2022-12-01T11:49:59;7.40;99.90
64396;DHT22;50717;53.360;6.290;2022-12-01T11:52:27;8.20;99.90
64396;DHT22;50717;53.360;6.290;2022-12-01T11:57:46;8.00;99.90
64396;DHT22;50717;53.360;6.290;2022-12-01T12:00:14;7.60;99.90
64396;DHT22;50717;53.360;6.290;2022-12-01T12:11:21;8.50;99.90
64396;DHT22;50717;53.360;6.290;2022-12-01T12:25:05;8.30;99.90
64396;DHT22;50717;53.360;6.290;2022-12-01T12:27:55;8.50;99.90
64396;DHT22;50717;53.360;6.290;2022-12-01T12:30:28;8.30;99.90
64396;DHT22;50717;53.360;6.290;2022-12-01T12:33:43;9.10;99.90
64396;DHT22;50717;53.360;6.290;2022-12-01T12:41:54;7.70;99.90
64396;DHT22;50717;53.360;6.290;2022-12-01T12:49:49;8.10;99.90
64396;DHT22;50717;53.360;6.290;2022-12-01T12:52:33;8.30;99.90
64396;DHT22;50717;53.360;6.290;2022-12-01T12:55:17;8.20;99.90
64396;DHT22;50717;53.360;6.290;2022-12-01T12:57:56;8.20;99.90
64396;DHT22;50717;53.360;6.290;2022-12-01T13:00:28;8.00;99.90
64396;DHT22;50717;53.360;6.290;2022-12-01T13:05:51;7.70;99.90
64396;DHT22;50717;53.360;6.290;2022-12-01T13:13:39;7.90;99.90
64396;DHT22;50717;53.360;6.290;2022-12-01T13:16:12;7.90;99.90
64396;DHT22;50717;53.360;6.290;2022-12-01T13:18:55;8.10;99.90
64396;DHT22;50717;53.360;6.290;2022-12-01T13:21:30;7.60;99.90
64396;DHT22;50717;53.360;6.290;2022-12-01T13:23:57;8.10;99.90
64396;DHT22;50717;53.360;6.290;2022-12-01T13:26:23;8.60;99.90
64396;DHT22;50717;53.360;6.290;2022-12-01T13:28:55;8.20;99.90
64396;DHT22;50717;53.360;6.290;2022-12-01T13:31:22;7.70;99.90
64396;DHT22;50717;53.360;6.290;2022-12-01T13:34:03;7.90;99.90
64396;DHT22;50717;53.360;6.290;2022-12-01T13:36:30;7.90;99.90
64396;DHT22;50717;53.360;6.290;2022-12-01T13:39:05;7.80;99.90
64396;DHT22;50717;53.360;6.290;2022-12-01T13:41:36;7.70;99.90
64396;DHT22;50717;53.360;6.290;2022-12-01T13:49:41;7.50;99.90
64396;DHT22;50717;53.360;6.290;2022-12-01T14:00:31;7.70;99.90
64396;DHT22;50717;53.360;6.290;2022-12-01T14:08:15;7.50;99.90
64396;DHT22;50717;53.360;6.290;2022-12-01T14:11:36;7.60;99.90
64396;DHT22;50717;53.360;6.290;2022-12-01T14:13:48;7.30;99.90
64396;DHT22;50717;53.360;6.290;2022-12-01T14:16:15;7.90;99.90
64396;DHT22;50717;53.360;6.290;2022-12-01T14:18:55;7.90;99.90
64396;DHT22;50717;53.360;6.290;2022-12-01T14:21:42;7.00;99.90
64396;DHT22;50717;53.360;6.290;2022-12-01T14:24:23;7.20;99.90
64396;DHT22;50717;53.360;6.290;2022-12-01T14:26:50;8.10;99.90
64396;DHT22;50717;53.360;6.290;2022-12-01T14:29:29;8.00;99.90
64396;DHT22;50717;53.360;6.290;2022-12-01T14:32:19;6.90;99.90
64396;DHT22;50717;53.360;6.290;2022-12-01T14:34:49;7.20;99.90
64396;DHT22;50717;53.360;6.290;2022-12-01T14:37:18;7.00;99.90
64396;DHT22;50717;53.360;6.290;2022-12-01T14:39:55;7.20;99.90
64396;DHT22;50717;53.360;6.290;2022-12-01T14:42:35;7.10;99.90
64396;DHT22;50717;53.360;6.290;2022-12-01T14:45:28;7.00;99.90
64396;DHT22;50717;53.360;6.290;2022-12-01T14:48:00;6.70;99.90
64396;DHT22;50717;53.360;6.290;2022-12-01T14:50:40;6.80;99.90
64396;DHT22;50717;53.360;6.290;2022-12-01T14:53:18;7.00;99.90
64396;DHT22;50717;53.360;6.290;2022-12-01T14:55:51;7.80;99.90
64396;DHT22;50717;53.360;6.290;2022-12-01T14:58:30;6.80;99.90
64396;DHT22;50717;53.360;6.290;2022-12-01T15:03:46;7.00;99.90
64396;DHT22;50717;53.360;6.290;2022-12-01T15:06:24;6.60;99.90
64396;DHT22;50717;53.360;6.290;2022-12-01T15:09:14;6.80;99.90
64396;DHT22;50717;53.360;6.290;2022-12-01T15:11:54;6.30;99.90
64396;DHT22;50717;53.360;6.290;2022-12-01T15:14:23;6.50;99.90
64396;DHT22;50717;53.360;6.290;2022-12-01T15:16:49;6.40;99.90
64396;DHT22;50717;53.360;6.290;2022-12-01T15:19:41;6.30;99.90
64396;DHT22;50717;53.360;6.290;2022-12-01T15:22:15;6.50;99.90
64396;DHT22;50717;53.360;6.290;2022-12-01T15:24:43;7.90;99.90
64396;DHT22;50717;53.360;6.290;2022-12-01T15:27:29;7.10;99.90
64396;DHT22;50717;53.360;6.290;2022-12-01T15:29:56;8.00;99.90
64396;DHT22;50717;53.360;6.290;2022-12-01T15:32:23;6.60;99.90
64396;DHT22;50717;53.360;6.290;2022-12-01T15:34:52;6.30;99.90
64396;DHT22;50717;53.360;6.290;2022-12-01T15:37:21;6.30;99.90
64396;DHT22;50717;53.360;6.290;2022-12-01T15:39:53;7.50;99.90
64396;DHT22;50717;53.360;6.290;2022-12-01T15:44:57;6.40;99.90
64396;DHT22;50717;53.360;6.290;2022-12-01T15:47:34;6.50;99.90
64396;DHT22;50717;53.360;6.290;2022-12-01T15:50:04;6.60;99.90
64396;DHT22;50717;53.360;6.290;2022-12-01T15:52:30;6.20;99.90
64396;DHT22;50717;53.360;6.290;2022-12-01T15:55:01;6.20;99.90
64396;DHT22;50717;53.360;6.290;2022-12-01T15:57:28;6.40;99.90
64396;DHT22;50717;53.360;6.290;2022-12-01T15:59:56;6.50;99.90
64396;DHT22;50717;53.360;6.290;2022-12-01T16:02:28;6.60;99.90
64396;DHT22;50717;53.360;6.290;2022-12-01T16:05:16;6.30;99.90
64396;DHT22;50717;53.360;6.290;2022-12-01T16:07:43;6.10;99.90
64396;DHT22;50717;53.360;6.290;2022-12-01T16:12:50;5.90;99.90
64396;DHT22;50717;53.360;6.290;2022-12-01T16:15:18;6.10;99.90
64396;DHT22;50717;53.360;6.290;2022-12-01T16:17:52;6.00;99.90
64396;DHT22;50717;53.360;6.290;2022-12-01T16:20:29;5.80;99.90
64396;DHT22;50717;53.360;6.290;2022-12-01T16:23:17;6.00;99.90
64396;DHT22;50717;53.360;6.290;2022-12-01T16:25:45;6.00;99.90
64396;DHT22;50717;53.360;6.290;2022-12-01T16:28:31;6.10;99.90
64396;DHT22;50717;53.360;6.290;2022-12-01T16:31:00;5.60;99.90
64396;DHT22;50717;53.360;6.290;2022-12-01T16:33:28;6.00;99.90
64396;DHT22;50717;53.360;6.290;2022-12-01T16:35:54;6.60;99.90
64396;DHT22;50717;53.360;6.290;2022-12-01T16:38:24;7.30;99.90
64396;DHT22;50717;53.360;6.290;2022-12-01T16:40:55;6.00;99.90
64396;DHT22;50717;53.360;6.290;2022-12-01T16:43:23;6.00;99.90
64396;DHT22;50717;53.360;6.290;2022-12-01T16:45:57;6.10;99.90
64396;DHT22;50717;53.360;6.290;2022-12-01T16:48:24;5.90;99.90
64396;DHT22;50717;53.360;6.290;2022-12-01T16:50:50;7.20;99.90
64396;DHT22;50717;53.360;6.290;2022-12-01T16:53:17;5.60;99.90
64396;DHT22;50717;53.360;6.290;2022-12-01T16:55:46;7.30;99.90
64396;DHT22;50717;53.360;6.290;2022-12-01T16:58:12;7.10;99.90
64396;DHT22;50717;53.360;6.290;2022-12-01T17:00:38;5.80;99.90
64396;DHT22;50717;53.360;6.290;2022-12-01T17:03:04;5.60;99.90
64396;DHT22;50717;53.360;6.290;2022-12-01T17:05:30;6.10;99.90
64396;DHT22;50717;53.360;6.290;2022-12-01T17:07:56;6.50;99.90
64396;DHT22;50717;53.360;6.290;2022-12-01T17:10:22;5.90;99.90
64396;DHT22;50717;53.360;6.290;2022-12-01T17:12:48;5.70;99.90
64396;DHT22;50717;53.360;6.290;2022-12-01T17:15:14;5.70;99.90
64396;DHT22;50717;53.360;6.290;2022-12-01T17:17:40;5.70;99.90
64396;DHT22;50717;53.360;6.290;2022-12-01T17:20:07;6.50;99.90
64396;DHT22;50717;53.360;6.290;2022-12-01T17:22:33;5.40;99.90
64396;DHT22;50717;53.360;6.290;2022-12-01T17:24:58;5.80;99.90
64396;DHT22;50717;53.360;6.290;2022-12-01T17:27:26;5.80;99.90
64396;DHT22;50717;53.360;6.290;2022-12-01T17:29:53;6.40;99.90
64396;DHT22;50717;53.360;6.290;2022-12-01T17:32:19;5.40;99.90
64396;DHT22;50717;53.360;6.290;2022-12-01T17:34:45;6.70;99.90
64396;DHT22;50717;53.360;6.290;2022-12-01T17:37:10;5.70;99.90
64396;DHT22;50717;53.360;6.290;2022-12-01T17:39:36;5.70;99.90
64396;DHT22;50717;53.360;6.290;2022-12-01T17:42:02;5.40;99.90
64396;DHT22;50717;53.360;6.290;2022-12-01T17:44:28;5.50;99.90
64396;DHT22;50717;53.360;6.290;2022-12-01T17:46:53;5.40;99.90
64396;DHT22;50717;53.360;6.290;2022-12-01T17:49:19;6.60;99.90
64396;DHT22;50717;53.360;6.290;2022-12-01T17:51:45;5.30;99.90
64396;DHT22;50717;53.360;6.290;2022-12-01T17:54:10;5.20;99.90
64396;DHT22;50717;53.360;6.290;2022-12-01T17:56:36;5.40;99.90
64396;DHT22;50717;53.360;6.290;2022-12-01T17:59:02;5.40;99.90
64396;DHT22;50717;53.360;6.290;2022-12-01T18:01:27;5.60;99.90
64396;DHT22;50717;53.360;6.290;2022-12-01T18:03:53;6.20;99.90
64396;DHT22;50717;53.360;6.290;2022-12-01T18:06:19;5.80;99.90
64396;DHT22;50717;53.360;6.290;2022-12-01T18:08:45;5.50;99.90
64396;DHT22;50717;53.360;6.290;2022-12-01T18:11:13;5.30;99.90
64396;DHT22;50717;53.360;6.290;2022-12-01T18:13:44;5.60;99.90
64396;DHT22;50717;53.360;6.290;2022-12-01T18:16:14;5.30;99.90
64396;DHT22;50717;53.360;6.290;2022-12-01T18:18:40;5.20;99.90
64396;DHT22;50717;53.360;6.290;2022-12-01T18:21:07;5.50;99.90
64396;DHT22;50717;53.360;6.290;2022-12-01T18:23:34;5.50;99.90
64396;DHT22;50717;53.360;6.290;2022-12-01T18:26:08;6.30;99.90